KTME

Houston Executive Airport

Houston, Texas, USA
METAR KTME 191335Z AUTO 03004KT 5SM BR OVC004 13/13 A2990 RMK AO2
Observed Flight Rules
Dec-19 @ 13:35 UTC (8 minutes ago) Instrument Flight Rules
Wind Visibility Clouds Conditions
30° at 4 knots 5 miles
  • Overcast at 400' AGL
  • Mist
Temperatures Readings
Current 13°C / 55°F
Dewpoint 13°C / 55°F
Humidity 100%
Altimeter 29.9" Hg
Pressure 1013 hPa
Elevation 51
METAR KTME 191335Z AUTO 03004KT 5SM BR OVC004 13/13 A2990 RMK AO2
Observed Flight Rules
Dec-19 @ 13:35 UTC
(8 minutes ago)
LIFR
Wind Visibility
30° at 4 knots 5 miles
Clouds
  • Overcast at 400' AGL
Conditions
  • Mist
Temperature Dewpoint
13°C / 55°F 13°C / 55°F
Humidity Altimeter Pressure
100% 29.9" Hg 1013 hPa